createdAt,value
2023-05-04T00:03:49.254Z,1.73
2023-05-04T00:08:51.108Z,2.28
2023-05-04T00:13:52.828Z,1.90
2023-05-04T00:18:54.372Z,2.00
2023-05-04T00:23:55.960Z,2.53
2023-05-04T00:28:57.499Z,2.67
2023-05-04T00:33:59.111Z,2.45
2023-05-04T00:39:00.776Z,3.08
2023-05-04T00:44:03.706Z,2.80
2023-05-04T00:49:06.565Z,2.88
2023-05-04T00:54:08.122Z,4.15
2023-05-04T00:59:10.097Z,3.20
2023-05-04T01:04:12.188Z,3.28
2023-05-04T01:09:37.077Z,2.53
2023-05-04T01:14:39.676Z,2.60
2023-05-04T01:19:41.200Z,2.20
2023-05-04T01:24:42.890Z,2.72
2023-05-04T01:29:52.926Z,2.25
2023-05-04T01:34:54.705Z,2.40
2023-05-04T01:39:56.176Z,2.22
2023-05-04T01:44:58.600Z,2.55
2023-05-04T01:50:00.237Z,2.53
2023-05-04T01:55:01.755Z,2.65
2023-05-04T02:00:03.682Z,2.92
2023-05-04T02:05:17.080Z,3.10
2023-05-04T02:10:18.609Z,2.60
2023-05-04T02:15:20.286Z,3.13
2023-05-04T02:20:21.796Z,2.22
2023-05-04T02:25:23.413Z,2.65
2023-05-04T02:30:24.945Z,2.75
2023-05-04T02:35:26.475Z,3.03
2023-05-04T02:40:28.121Z,2.33
2023-05-04T02:45:31.555Z,3.20
2023-05-04T02:50:33.375Z,2.92
2023-05-04T02:55:34.891Z,3.05
2023-05-04T03:00:36.416Z,3.13
2023-05-04T03:05:37.943Z,3.47
2023-05-04T03:10:39.443Z,2.58
2023-05-04T03:15:40.937Z,3.10
2023-05-04T03:20:42.652Z,2.72
2023-05-04T03:25:47.834Z,3.78
2023-05-04T03:30:50.023Z,3.22
2023-05-04T03:35:53.727Z,2.83
2023-05-04T03:40:55.254Z,3.63
2023-05-04T03:45:58.017Z,4.10
2023-05-04T03:50:59.811Z,4.53
2023-05-04T03:56:02.233Z,3.92
2023-05-04T04:01:04.792Z,3.90
2023-05-04T04:06:06.632Z,3.80
2023-05-04T04:11:08.286Z,4.70
2023-05-04T04:16:09.982Z,4.18
2023-05-04T04:21:11.758Z,3.92
2023-05-04T04:26:13.277Z,4.38
2023-05-04T04:31:14.879Z,3.92
2023-05-04T04:36:16.494Z,4.05
2023-05-04T04:41:17.964Z,4.10
2023-05-04T04:46:19.463Z,4.63
2023-05-04T04:51:21.486Z,4.70
2023-05-04T04:56:23.020Z,4.10
2023-05-04T05:01:24.651Z,3.90
2023-05-04T05:06:26.228Z,4.05
2023-05-04T05:11:27.712Z,3.72
2023-05-04T05:16:29.300Z,4.60
2023-05-04T05:21:30.863Z,3.25
2023-05-04T05:26:32.354Z,2.92
2023-05-04T05:31:33.884Z,3.13
2023-05-04T05:36:35.526Z,2.50
2023-05-04T05:41:37.415Z,3.92
2023-05-04T05:46:39.122Z,3.40
2023-05-04T05:51:40.840Z,4.32
2023-05-04T05:56:42.337Z,4.47
2023-05-04T06:01:43.862Z,3.30
2023-05-04T06:06:46.191Z,2.53
2023-05-04T06:11:47.807Z,3.00
2023-05-04T06:16:49.362Z,2.85
2023-05-04T06:21:50.878Z,2.92
2023-05-04T06:26:52.474Z,2.65
2023-05-04T06:31:54.077Z,2.90
2023-05-04T06:36:55.692Z,2.45
2023-05-04T06:41:57.190Z,2.58
2023-05-04T06:47:00.733Z,2.30
2023-05-04T06:52:02.289Z,2.25
2023-05-04T06:57:03.771Z,2.70
2023-05-04T07:02:05.261Z,2.85
2023-05-04T07:07:06.806Z,3.60
2023-05-04T07:12:08.317Z,2.97
2023-05-04T07:17:09.857Z,3.13
2023-05-04T07:22:11.385Z,3.17
2023-05-04T07:27:12.923Z,2.50
2023-05-04T07:32:14.480Z,2.88
2023-05-04T07:37:16.208Z,2.58
2023-05-04T07:42:17.933Z,2.90
2023-05-04T07:47:20.008Z,2.60
2023-05-04T07:52:21.604Z,2.58
2023-05-04T07:57:23.120Z,3.13
2023-05-04T08:02:24.833Z,2.55
2023-05-04T08:07:26.844Z,2.63
2023-05-04T08:12:28.386Z,2.65
2023-05-04T08:17:29.951Z,3.22
2023-05-04T08:22:31.520Z,3.17
2023-05-04T08:27:33.030Z,3.08
2023-05-04T08:32:34.598Z,2.50
2023-05-04T08:37:36.230Z,3.00
2023-05-04T08:42:37.745Z,2.78
2023-05-04T08:47:39.269Z,2.78
2023-05-04T08:52:45.145Z,3.25
2023-05-04T08:57:47.609Z,2.60
2023-05-04T09:02:50.637Z,3.38
2023-05-04T09:07:53.215Z,3.30
2023-05-04T09:12:54.988Z,3.10
2023-05-04T09:18:03.111Z,2.60
2023-05-04T09:23:05.910Z,2.83
2023-05-04T09:28:07.420Z,2.92
2023-05-04T09:33:09.697Z,2.80
2023-05-04T09:38:11.302Z,2.83
2023-05-04T09:43:12.885Z,2.97
2023-05-04T09:48:24.930Z,3.63
2023-05-04T09:53:28.856Z,2.85
2023-05-04T09:58:31.104Z,3.35
2023-05-04T10:03:33.059Z,2.90
2023-05-04T10:08:35.871Z,3.10
2023-05-04T10:13:37.905Z,3.20
2023-05-04T10:18:57.791Z,3.03
2023-05-04T10:24:33.041Z,2.85
2023-05-04T10:29:34.994Z,2.90
2023-05-04T10:34:36.583Z,2.85
2023-05-04T10:39:38.184Z,3.00
2023-05-04T10:44:51.709Z,2.85
2023-05-04T10:50:04.361Z,2.67
2023-05-04T10:55:06.399Z,2.60
2023-05-04T11:00:08.780Z,2.70
2023-05-04T11:05:10.392Z,2.60
2023-05-04T11:10:23.765Z,2.67
2023-05-04T11:15:25.355Z,2.58
2023-05-04T11:20:27.525Z,2.33
2023-05-04T11:25:30.318Z,2.60
2023-05-04T11:30:35.315Z,2.22
2023-05-04T11:40:38.685Z,2.40
2023-05-04T11:45:40.846Z,2.63
2023-05-04T11:50:42.616Z,3.00
2023-05-04T11:55:44.181Z,2.78
2023-05-04T12:00:46.809Z,2.40
2023-05-04T12:05:53.199Z,2.78
2023-05-04T12:11:13.994Z,2.42
2023-05-04T12:16:17.347Z,2.92
2023-05-04T12:21:20.326Z,2.70
2023-05-04T12:26:21.811Z,2.05
2023-05-04T12:31:25.242Z,2.22
2023-05-04T12:36:27.130Z,2.45
2023-05-04T12:41:28.647Z,2.80
2023-05-04T12:46:30.752Z,3.33
2023-05-04T12:51:32.396Z,2.63
2023-05-04T12:56:34.016Z,2.20
2023-05-04T13:01:35.588Z,2.67
2023-05-04T13:06:37.186Z,2.70
2023-05-04T13:11:38.750Z,1.88
2023-05-04T13:16:40.233Z,2.00
2023-05-04T13:21:41.857Z,2.75
2023-05-04T13:26:43.372Z,2.60
2023-05-04T13:31:45.357Z,1.88
2023-05-04T13:36:47.001Z,2.45
2023-05-04T13:41:48.786Z,2.28
2023-05-04T13:46:50.325Z,2.25
2023-05-04T13:51:51.888Z,2.22
2023-05-04T13:56:53.407Z,2.50
2023-05-04T14:01:55.170Z,2.10
2023-05-04T14:06:56.678Z,2.42
2023-05-04T14:11:58.216Z,2.50
2023-05-04T14:16:59.839Z,1.90
2023-05-04T14:22:01.394Z,2.08
2023-05-04T14:27:02.914Z,2.53
2023-05-04T14:32:04.575Z,2.35
2023-05-04T14:37:06.167Z,1.90
2023-05-04T14:42:07.657Z,1.85
2023-05-04T14:47:09.175Z,2.30
2023-05-04T14:52:10.700Z,2.08
2023-05-04T14:57:12.197Z,2.20
2023-05-04T15:02:13.722Z,1.90
2023-05-04T15:07:16.632Z,1.85
2023-05-04T15:12:18.151Z,1.77
2023-05-04T15:17:20.250Z,2.13
2023-05-04T15:22:21.822Z,1.80
2023-05-04T15:27:23.478Z,2.13
2023-05-04T15:32:24.975Z,1.85
2023-05-04T15:37:26.591Z,1.90
2023-05-04T15:42:28.104Z,1.55
2023-05-04T15:47:29.663Z,2.10
2023-05-04T15:52:31.171Z,2.03
2023-05-04T15:57:32.899Z,2.03
2023-05-04T16:02:34.430Z,1.88
2023-05-04T16:07:35.961Z,2.70
2023-05-04T16:12:40.854Z,2.08
2023-05-04T16:17:42.469Z,2.17
2023-05-04T16:22:43.995Z,2.28
2023-05-04T16:27:45.595Z,2.10
2023-05-04T16:32:47.160Z,2.58
2023-05-04T16:37:48.797Z,2.00
2023-05-04T16:42:50.390Z,2.10
2023-05-04T16:47:52.190Z,2.13
2023-05-04T16:52:53.799Z,2.42
2023-05-04T16:57:56.989Z,2.20
2023-05-04T17:02:58.568Z,1.98
2023-05-04T17:08:00.329Z,2.05
2023-05-04T17:13:02.514Z,2.55
2023-05-04T17:18:04.298Z,2.35
2023-05-04T17:23:05.904Z,2.10
2023-05-04T17:28:07.556Z,2.17
2023-05-04T17:33:09.102Z,2.42
2023-05-04T17:38:10.741Z,2.40
2023-05-04T17:43:12.360Z,2.17
2023-05-04T17:48:13.843Z,2.33
2023-05-04T17:53:15.355Z,2.55
2023-05-04T17:58:16.862Z,2.60
2023-05-04T18:03:18.452Z,2.28
2023-05-04T18:08:20.078Z,2.70
2023-05-04T18:13:21.601Z,2.78
2023-05-04T18:18:23.116Z,2.42
2023-05-04T18:23:24.694Z,2.80
2023-05-04T18:28:26.301Z,2.35
2023-05-04T18:33:27.830Z,2.22
2023-05-04T18:38:29.346Z,2.03
2023-05-04T18:43:31.055Z,2.53
2023-05-04T18:48:32.587Z,2.63
2023-05-04T18:53:34.106Z,2.67
2023-05-04T18:58:37.072Z,2.42
2023-05-04T19:03:38.657Z,1.95
2023-05-04T19:08:40.163Z,2.00
2023-05-04T19:13:41.737Z,2.33
2023-05-04T19:18:43.378Z,2.25
2023-05-04T19:23:44.952Z,2.28
2023-05-04T19:28:46.606Z,2.63
2023-05-04T19:33:48.985Z,2.28
2023-05-04T19:38:50.716Z,3.13
2023-05-04T19:43:52.229Z,2.70
2023-05-04T19:48:53.766Z,3.42
2023-05-04T19:53:55.353Z,2.90
2023-05-04T19:58:56.880Z,3.03
2023-05-04T20:03:58.437Z,3.28
2023-05-04T20:08:59.941Z,2.78
2023-05-04T20:14:01.728Z,3.15
2023-05-04T20:19:04.100Z,4.18
2023-05-04T20:24:06.021Z,3.67
2023-05-04T20:29:07.544Z,3.25
2023-05-04T20:34:09.103Z,4.45
2023-05-04T20:39:10.608Z,3.47
2023-05-04T20:44:12.120Z,3.92
2023-05-04T20:49:13.666Z,3.75
2023-05-04T20:54:15.149Z,3.35
2023-05-04T20:59:16.708Z,3.80
2023-05-04T21:04:18.222Z,3.95
2023-05-04T21:09:19.818Z,4.00
2023-05-04T21:14:21.320Z,3.60
2023-05-04T21:19:22.917Z,4.90
2023-05-04T21:24:24.501Z,4.18
2023-05-04T21:29:26.346Z,3.88
2023-05-04T21:34:27.833Z,3.92
2023-05-04T21:39:29.519Z,3.72
2023-05-04T21:44:31.058Z,4.13
2023-05-04T21:49:32.573Z,4.72
2023-05-04T21:54:34.067Z,4.35
2023-05-04T21:59:35.611Z,3.90
2023-05-04T22:04:37.174Z,3.50
2023-05-04T22:09:38.707Z,3.75
2023-05-04T22:14:42.205Z,4.07
2023-05-04T22:19:44.065Z,4.45
2023-05-04T22:24:45.549Z,4.18
2023-05-04T22:29:47.039Z,3.53
2023-05-04T22:34:48.518Z,4.25
2023-05-04T22:39:50.019Z,4.68
2023-05-04T22:44:51.512Z,4.00
2023-05-04T22:49:56.282Z,3.90
2023-05-04T22:54:57.800Z,4.63
2023-05-04T22:59:59.322Z,3.90
2023-05-04T23:05:00.849Z,3.65
2023-05-04T23:10:02.350Z,3.97
2023-05-04T23:15:05.533Z,3.90
2023-05-04T23:20:08.575Z,3.85
2023-05-04T23:25:10.351Z,3.90
2023-05-04T23:30:12.152Z,3.95
2023-05-04T23:35:13.652Z,3.55
2023-05-04T23:40:15.141Z,4.25
2023-05-04T23:45:16.785Z,4.13
2023-05-04T23:50:18.436Z,3.55
2023-05-04T23:55:20.108Z,4.40
